sensor_id;sensor_type;location;lat;lon;timestamp;P1;durP1;ratioP1;P2;durP2;ratioP2
75496;SDS011;64074;47.540;19.072;2024-03-25T00:02:37;2.50;;;1.20;;
75496;SDS011;64074;47.540;19.072;2024-03-25T00:05:57;3.03;;;1.10;;
75496;SDS011;64074;47.540;19.072;2024-03-25T00:09:26;2.33;;;1.02;;
75496;SDS011;64074;47.540;19.072;2024-03-25T00:12:42;2.80;;;1.20;;
75496;SDS011;64074;47.540;19.072;2024-03-25T00:16:06;2.35;;;1.35;;
75496;SDS011;64074;47.540;19.072;2024-03-25T00:19:15;2.53;;;1.02;;
75496;SDS011;64074;47.540;19.072;2024-03-25T00:22:46;2.23;;;0.90;;
75496;SDS011;64074;47.540;19.072;2024-03-25T00:26:13;3.20;;;1.20;;
75496;SDS011;64074;47.540;19.072;2024-03-25T00:29:32;2.05;;;0.95;;
75496;SDS011;64074;47.540;19.072;2024-03-25T00:32:55;2.20;;;1.10;;
75496;SDS011;64074;47.540;19.072;2024-03-25T00:36:13;2.28;;;1.23;;
75496;SDS011;64074;47.540;19.072;2024-03-25T00:39:19;2.57;;;1.20;;
75496;SDS011;64074;47.540;19.072;2024-03-25T00:42:30;2.33;;;1.00;;
75496;SDS011;64074;47.540;19.072;2024-03-25T00:45:47;2.58;;;1.33;;
75496;SDS011;64074;47.540;19.072;2024-03-25T00:48:57;2.83;;;1.35;;
75496;SDS011;64074;47.540;19.072;2024-03-25T00:52:21;3.85;;;1.30;;
75496;SDS011;64074;47.540;19.072;2024-03-25T00:55:37;2.97;;;1.20;;
75496;SDS011;64074;47.540;19.072;2024-03-25T00:58:55;3.28;;;1.45;;
75496;SDS011;64074;47.540;19.072;2024-03-25T01:02:17;3.40;;;1.55;;
75496;SDS011;64074;47.540;19.072;2024-03-25T01:05:40;3.13;;;1.58;;
75496;SDS011;64074;47.540;19.072;2024-03-25T01:08:56;3.22;;;1.55;;
75496;SDS011;64074;47.540;19.072;2024-03-25T01:12:31;4.00;;;1.60;;
75496;SDS011;64074;47.540;19.072;2024-03-25T01:15:53;3.22;;;1.55;;
75496;SDS011;64074;47.540;19.072;2024-03-25T01:18:56;2.75;;;1.50;;
75496;SDS011;64074;47.540;19.072;2024-03-25T01:22:01;3.30;;;1.60;;
75496;SDS011;64074;47.540;19.072;2024-03-25T01:25:13;2.72;;;1.55;;
75496;SDS011;64074;47.540;19.072;2024-03-25T01:28:32;3.67;;;1.60;;
75496;SDS011;64074;47.540;19.072;2024-03-25T01:31:54;3.05;;;1.58;;
75496;SDS011;64074;47.540;19.072;2024-03-25T01:35:16;3.95;;;1.80;;
75496;SDS011;64074;47.540;19.072;2024-03-25T01:38:35;2.53;;;1.75;;
75496;SDS011;64074;47.540;19.072;2024-03-25T01:41:55;2.50;;;1.40;;
75496;SDS011;64074;47.540;19.072;2024-03-25T01:45:14;3.33;;;1.67;;
75496;SDS011;64074;47.540;19.072;2024-03-25T01:48:40;3.25;;;1.50;;
75496;SDS011;64074;47.540;19.072;2024-03-25T01:52:06;4.07;;;1.77;;
75496;SDS011;64074;47.540;19.072;2024-03-25T01:55:20;4.05;;;1.90;;
75496;SDS011;64074;47.540;19.072;2024-03-25T01:58:50;4.20;;;2.08;;
75496;SDS011;64074;47.540;19.072;2024-03-25T02:01:53;5.77;;;2.03;;
75496;SDS011;64074;47.540;19.072;2024-03-25T02:05:01;3.75;;;1.60;;
75496;SDS011;64074;47.540;19.072;2024-03-25T02:08:11;4.20;;;1.77;;
75496;SDS011;64074;47.540;19.072;2024-03-25T02:11:25;3.78;;;1.90;;
75496;SDS011;64074;47.540;19.072;2024-03-25T02:14:49;5.38;;;2.00;;
75496;SDS011;64074;47.540;19.072;2024-03-25T02:18:00;3.30;;;1.60;;
75496;SDS011;64074;47.540;19.072;2024-03-25T02:24:45;2.75;;;1.65;;
75496;SDS011;64074;47.540;19.072;2024-03-25T02:27:54;3.40;;;1.30;;
75496;SDS011;64074;47.540;19.072;2024-03-25T02:31:17;2.47;;;1.10;;
75496;SDS011;64074;47.540;19.072;2024-03-25T02:34:33;2.37;;;0.90;;
75496;SDS011;64074;47.540;19.072;2024-03-25T02:37:50;2.72;;;1.33;;
75496;SDS011;64074;47.540;19.072;2024-03-25T02:40:57;3.00;;;1.55;;
75496;SDS011;64074;47.540;19.072;2024-03-25T02:44:04;2.95;;;1.33;;
75496;SDS011;64074;47.540;19.072;2024-03-25T02:47:13;2.35;;;1.40;;
75496;SDS011;64074;47.540;19.072;2024-03-25T02:50:33;3.00;;;1.40;;
75496;SDS011;64074;47.540;19.072;2024-03-25T02:53:54;1.92;;;1.02;;
75496;SDS011;64074;47.540;19.072;2024-03-25T02:57:15;2.33;;;1.30;;
75496;SDS011;64074;47.540;19.072;2024-03-25T03:00:31;4.30;;;1.40;;
75496;SDS011;64074;47.540;19.072;2024-03-25T03:03:40;2.92;;;1.20;;
75496;SDS011;64074;47.540;19.072;2024-03-25T03:06:47;2.43;;;1.20;;
75496;SDS011;64074;47.540;19.072;2024-03-25T03:09:56;2.20;;;1.25;;
75496;SDS011;64074;47.540;19.072;2024-03-25T03:13:18;2.22;;;1.02;;
75496;SDS011;64074;47.540;19.072;2024-03-25T03:16:40;1.85;;;1.02;;
75496;SDS011;64074;47.540;19.072;2024-03-25T03:20:02;2.40;;;1.20;;
75496;SDS011;64074;47.540;19.072;2024-03-25T03:23:24;11.67;;;5.10;;
75496;SDS011;64074;47.540;19.072;2024-03-25T03:26:56;3.83;;;1.20;;
75496;SDS011;64074;47.540;19.072;2024-03-25T03:29:58;3.00;;;1.30;;
75496;SDS011;64074;47.540;19.072;2024-03-25T03:33:20;2.22;;;1.17;;
75496;SDS011;64074;47.540;19.072;2024-03-25T03:36:42;2.67;;;1.15;;
75496;SDS011;64074;47.540;19.072;2024-03-25T03:40:04;3.20;;;1.17;;
75496;SDS011;64074;47.540;19.072;2024-03-25T03:43:26;1.95;;;0.80;;
75496;SDS011;64074;47.540;19.072;2024-03-25T03:46:53;2.00;;;0.80;;
75496;SDS011;64074;47.540;19.072;2024-03-25T03:50:03;1.80;;;0.82;;
75496;SDS011;64074;47.540;19.072;2024-03-25T03:53:33;1.88;;;0.80;;
75496;SDS011;64074;47.540;19.072;2024-03-25T03:56:54;1.93;;;1.00;;
75496;SDS011;64074;47.540;19.072;2024-03-25T04:00:21;1.40;;;0.80;;
75496;SDS011;64074;47.540;19.072;2024-03-25T04:03:41;1.52;;;0.82;;
75496;SDS011;64074;47.540;19.072;2024-03-25T04:07:01;1.50;;;0.70;;
75496;SDS011;64074;47.540;19.072;2024-03-25T04:10:16;1.52;;;0.75;;
75496;SDS011;64074;47.540;19.072;2024-03-25T04:13:32;1.27;;;0.63;;
75496;SDS011;64074;47.540;19.072;2024-03-25T04:17:07;1.38;;;0.68;;
75496;SDS011;64074;47.540;19.072;2024-03-25T04:20:37;1.85;;;0.60;;
75496;SDS011;64074;47.540;19.072;2024-03-25T04:23:51;2.30;;;0.75;;
75496;SDS011;64074;47.540;19.072;2024-03-25T04:27:12;3.40;;;1.17;;
75496;SDS011;64074;47.540;19.072;2024-03-25T04:30:32;1.27;;;0.60;;
75496;SDS011;64074;47.540;19.072;2024-03-25T04:33:56;1.30;;;0.30;;
75496;SDS011;64074;47.540;19.072;2024-03-25T04:37:15;1.52;;;0.60;;
75496;SDS011;64074;47.540;19.072;2024-03-25T04:40:44;2.25;;;0.70;;
75496;SDS011;64074;47.540;19.072;2024-03-25T04:43:59;1.08;;;0.50;;
75496;SDS011;64074;47.540;19.072;2024-03-25T04:47:26;1.57;;;0.50;;
75496;SDS011;64074;47.540;19.072;2024-03-25T04:50:39;1.50;;;0.70;;
75496;SDS011;64074;47.540;19.072;2024-03-25T04:53:52;1.20;;;0.60;;
75496;SDS011;64074;47.540;19.072;2024-03-25T04:57:06;2.17;;;0.65;;
75496;SDS011;64074;47.540;19.072;2024-03-25T05:00:37;1.92;;;0.55;;
75496;SDS011;64074;47.540;19.072;2024-03-25T05:04:11;5.37;;;0.93;;
75496;SDS011;64074;47.540;19.072;2024-03-25T05:07:36;1.65;;;0.57;;
75496;SDS011;64074;47.540;19.072;2024-03-25T05:10:45;1.15;;;0.40;;
75496;SDS011;64074;47.540;19.072;2024-03-25T05:14:19;3.42;;;0.60;;
75496;SDS011;64074;47.540;19.072;2024-03-25T05:17:38;1.90;;;0.40;;
75496;SDS011;64074;47.540;19.072;2024-03-25T05:20:58;1.33;;;0.50;;
75496;SDS011;64074;47.540;19.072;2024-03-25T05:24:19;1.83;;;0.60;;
75496;SDS011;64074;47.540;19.072;2024-03-25T05:27:28;2.17;;;0.80;;
75496;SDS011;64074;47.540;19.072;2024-03-25T05:30:31;1.77;;;0.63;;
75496;SDS011;64074;47.540;19.072;2024-03-25T05:33:39;1.52;;;0.60;;
75496;SDS011;64074;47.540;19.072;2024-03-25T05:37:15;2.07;;;0.73;;
75496;SDS011;64074;47.540;19.072;2024-03-25T05:40:44;2.25;;;0.75;;
75496;SDS011;64074;47.540;19.072;2024-03-25T05:43:54;3.75;;;1.17;;
75496;SDS011;64074;47.540;19.072;2024-03-25T05:47:14;2.42;;;1.10;;
75496;SDS011;64074;47.540;19.072;2024-03-25T05:50:29;2.90;;;0.90;;
75496;SDS011;64074;47.540;19.072;2024-03-25T05:53:55;2.07;;;1.03;;
75496;SDS011;64074;47.540;19.072;2024-03-25T05:57:22;3.15;;;0.98;;
75496;SDS011;64074;47.540;19.072;2024-03-25T06:00:33;2.67;;;1.20;;
75496;SDS011;64074;47.540;19.072;2024-03-25T06:03:36;2.83;;;0.90;;
75496;SDS011;64074;47.540;19.072;2024-03-25T06:06:43;4.75;;;1.20;;
75496;SDS011;64074;47.540;19.072;2024-03-25T06:09:49;2.50;;;1.10;;
75496;SDS011;64074;47.540;19.072;2024-03-25T06:12:57;1.98;;;1.05;;
75496;SDS011;64074;47.540;19.072;2024-03-25T06:16:13;2.05;;;1.02;;
75496;SDS011;64074;47.540;19.072;2024-03-25T06:19:35;2.67;;;1.10;;
75496;SDS011;64074;47.540;19.072;2024-03-25T06:22:39;2.00;;;0.90;;
75496;SDS011;64074;47.540;19.072;2024-03-25T06:25:44;3.07;;;1.10;;
75496;SDS011;64074;47.540;19.072;2024-03-25T06:28:53;2.45;;;1.17;;
75496;SDS011;64074;47.540;19.072;2024-03-25T06:32:08;2.47;;;0.98;;
75496;SDS011;64074;47.540;19.072;2024-03-25T06:35:36;4.82;;;1.13;;
75496;SDS011;64074;47.540;19.072;2024-03-25T06:38:42;2.80;;;0.90;;
75496;SDS011;64074;47.540;19.072;2024-03-25T06:41:53;1.70;;;0.90;;
75496;SDS011;64074;47.540;19.072;2024-03-25T06:45:03;1.40;;;0.70;;
75496;SDS011;64074;47.540;19.072;2024-03-25T06:48:11;3.05;;;1.08;;
75496;SDS011;64074;47.540;19.072;2024-03-25T06:51:15;3.58;;;1.05;;
75496;SDS011;64074;47.540;19.072;2024-03-25T06:54:26;3.33;;;1.00;;
75496;SDS011;64074;47.540;19.072;2024-03-25T06:58:01;2.93;;;0.97;;
75496;SDS011;64074;47.540;19.072;2024-03-25T07:01:32;1.15;;;0.57;;
75496;SDS011;64074;47.540;19.072;2024-03-25T07:04:36;2.45;;;1.23;;
75496;SDS011;64074;47.540;19.072;2024-03-25T07:07:45;2.42;;;1.00;;
75496;SDS011;64074;47.540;19.072;2024-03-25T07:10:55;2.60;;;1.00;;
75496;SDS011;64074;47.540;19.072;2024-03-25T07:14:04;1.70;;;0.70;;
75496;SDS011;64074;47.540;19.072;2024-03-25T07:17:14;2.38;;;0.80;;
75496;SDS011;64074;47.540;19.072;2024-03-25T07:20:30;2.50;;;0.90;;
75496;SDS011;64074;47.540;19.072;2024-03-25T07:23:38;2.03;;;0.80;;
75496;SDS011;64074;47.540;19.072;2024-03-25T07:26:42;2.13;;;0.98;;
75496;SDS011;64074;47.540;19.072;2024-03-25T07:29:48;3.50;;;1.23;;
75496;SDS011;64074;47.540;19.072;2024-03-25T07:32:55;1.88;;;0.93;;
75496;SDS011;64074;47.540;19.072;2024-03-25T07:36:05;2.30;;;1.08;;
75496;SDS011;64074;47.540;19.072;2024-03-25T07:39:26;5.47;;;1.10;;
75496;SDS011;64074;47.540;19.072;2024-03-25T07:42:33;3.05;;;0.90;;
75496;SDS011;64074;47.540;19.072;2024-03-25T07:45:41;2.17;;;1.20;;
75496;SDS011;64074;47.540;19.072;2024-03-25T07:48:49;2.22;;;1.10;;
75496;SDS011;64074;47.540;19.072;2024-03-25T07:52:02;1.88;;;0.93;;
75496;SDS011;64074;47.540;19.072;2024-03-25T07:55:19;2.30;;;1.00;;
75496;SDS011;64074;47.540;19.072;2024-03-25T07:58:47;2.20;;;1.15;;
75496;SDS011;64074;47.540;19.072;2024-03-25T08:01:56;2.03;;;1.10;;
75496;SDS011;64074;47.540;19.072;2024-03-25T08:05:01;2.40;;;1.40;;
75496;SDS011;64074;47.540;19.072;2024-03-25T08:08:04;2.85;;;1.10;;
75496;SDS011;64074;47.540;19.072;2024-03-25T08:11:13;1.73;;;1.00;;
75496;SDS011;64074;47.540;19.072;2024-03-25T08:14:26;2.67;;;1.10;;
75496;SDS011;64074;47.540;19.072;2024-03-25T08:17:30;1.63;;;1.00;;
75496;SDS011;64074;47.540;19.072;2024-03-25T08:20:40;4.75;;;1.20;;
75496;SDS011;64074;47.540;19.072;2024-03-25T08:23:55;1.60;;;1.05;;
75496;SDS011;64074;47.540;19.072;2024-03-25T08:27:13;2.60;;;1.13;;
75496;SDS011;64074;47.540;19.072;2024-03-25T08:30:46;2.03;;;1.00;;
75496;SDS011;64074;47.540;19.072;2024-03-25T08:33:51;1.87;;;0.93;;
75496;SDS011;64074;47.540;19.072;2024-03-25T08:36:58;2.55;;;1.27;;
75496;SDS011;64074;47.540;19.072;2024-03-25T08:40:07;2.90;;;1.10;;
75496;SDS011;64074;47.540;19.072;2024-03-25T08:43:17;2.72;;;1.10;;
75496;SDS011;64074;47.540;19.072;2024-03-25T08:46:27;4.18;;;1.40;;
75496;SDS011;64074;47.540;19.072;2024-03-25T08:49:57;1.80;;;1.37;;
75496;SDS011;64074;47.540;19.072;2024-03-25T08:53:09;2.20;;;1.20;;
75496;SDS011;64074;47.540;19.072;2024-03-25T08:56:25;3.67;;;1.30;;
75496;SDS011;64074;47.540;19.072;2024-03-25T08:59:30;4.85;;;1.17;;
75496;SDS011;64074;47.540;19.072;2024-03-25T09:02:40;3.35;;;1.30;;
75496;SDS011;64074;47.540;19.072;2024-03-25T09:05:58;4.60;;;1.30;;
75496;SDS011;64074;47.540;19.072;2024-03-25T09:09:04;2.47;;;1.20;;
75496;SDS011;64074;47.540;19.072;2024-03-25T09:12:33;2.35;;;1.10;;
75496;SDS011;64074;47.540;19.072;2024-03-25T09:16:05;3.53;;;1.52;;
75496;SDS011;64074;47.540;19.072;2024-03-25T09:19:17;1.70;;;1.20;;
75496;SDS011;64074;47.540;19.072;2024-03-25T09:22:21;1.60;;;1.00;;
75496;SDS011;64074;47.540;19.072;2024-03-25T09:25:30;3.35;;;1.00;;
75496;SDS011;64074;47.540;19.072;2024-03-25T09:28:39;1.40;;;0.88;;
75496;SDS011;64074;47.540;19.072;2024-03-25T09:31:42;2.22;;;1.08;;
75496;SDS011;64074;47.540;19.072;2024-03-25T09:34:52;2.85;;;1.08;;
75496;SDS011;64074;47.540;19.072;2024-03-25T09:38:07;3.70;;;1.30;;
75496;SDS011;64074;47.540;19.072;2024-03-25T09:41:17;2.00;;;1.00;;
75496;SDS011;64074;47.540;19.072;2024-03-25T09:50:14;55.97;;;3.08;;
75496;SDS011;64074;47.540;19.072;2024-03-25T09:53:30;6.82;;;1.25;;
75496;SDS011;64074;47.540;19.072;2024-03-25T09:56:47;4.13;;;0.80;;
75496;SDS011;64074;47.540;19.072;2024-03-25T10:00:00;1.50;;;1.00;;
75496;SDS011;64074;47.540;19.072;2024-03-25T10:03:22;2.85;;;0.90;;
75496;SDS011;64074;47.540;19.072;2024-03-25T10:06:32;1.52;;;0.80;;
75496;SDS011;64074;47.540;19.072;2024-03-25T10:09:46;3.50;;;0.85;;
75496;SDS011;64074;47.540;19.072;2024-03-25T10:12:54;4.67;;;1.10;;
75496;SDS011;64074;47.540;19.072;2024-03-25T10:16:02;2.45;;;1.02;;
75496;SDS011;64074;47.540;19.072;2024-03-25T10:19:12;3.60;;;1.20;;
75496;SDS011;64074;47.540;19.072;2024-03-25T10:22:44;3.50;;;0.98;;
75496;SDS011;64074;47.540;19.072;2024-03-25T10:26:10;2.47;;;0.90;;
75496;SDS011;64074;47.540;19.072;2024-03-25T10:29:35;3.20;;;0.90;;
75496;SDS011;64074;47.540;19.072;2024-03-25T10:33:01;1.98;;;1.13;;
75496;SDS011;64074;47.540;19.072;2024-03-25T10:36:42;2.58;;;1.08;;
75496;SDS011;64074;47.540;19.072;2024-03-25T10:40:00;3.05;;;1.15;;
75496;SDS011;64074;47.540;19.072;2024-03-25T10:43:12;2.17;;;1.20;;
75496;SDS011;64074;47.540;19.072;2024-03-25T10:46:33;2.23;;;1.20;;
75496;SDS011;64074;47.540;19.072;2024-03-25T10:49:49;2.80;;;1.20;;
75496;SDS011;64074;47.540;19.072;2024-03-25T10:53:11;6.10;;;1.45;;
75496;SDS011;64074;47.540;19.072;2024-03-25T10:56:41;3.65;;;1.60;;
75496;SDS011;64074;47.540;19.072;2024-03-25T10:59:51;2.40;;;1.27;;
75496;SDS011;64074;47.540;19.072;2024-03-25T11:03:28;2.63;;;1.23;;
75496;SDS011;64074;47.540;19.072;2024-03-25T11:06:44;3.33;;;1.10;;
75496;SDS011;64074;47.540;19.072;2024-03-25T11:10:06;3.72;;;1.20;;
75496;SDS011;64074;47.540;19.072;2024-03-25T11:13:21;8.23;;;1.95;;
75496;SDS011;64074;47.540;19.072;2024-03-25T11:16:32;3.95;;;1.38;;
75496;SDS011;64074;47.540;19.072;2024-03-25T11:19:49;2.43;;;1.23;;
75496;SDS011;64074;47.540;19.072;2024-03-25T11:23:45;2.47;;;1.17;;
75496;SDS011;64074;47.540;19.072;2024-03-25T11:27:02;4.72;;;1.40;;
75496;SDS011;64074;47.540;19.072;2024-03-25T11:30:30;4.53;;;1.50;;
75496;SDS011;64074;47.540;19.072;2024-03-25T11:33:44;2.53;;;1.60;;
75496;SDS011;64074;47.540;19.072;2024-03-25T11:37:06;2.43;;;1.50;;
75496;SDS011;64074;47.540;19.072;2024-03-25T11:40:20;2.80;;;1.10;;
75496;SDS011;64074;47.540;19.072;2024-03-25T11:43:32;1.77;;;0.70;;
75496;SDS011;64074;47.540;19.072;2024-03-25T11:46:55;2.80;;;1.00;;
75496;SDS011;64074;47.540;19.072;2024-03-25T11:50:07;1.85;;;0.40;;
75496;SDS011;64074;47.540;19.072;2024-03-25T11:53:13;0.90;;;0.53;;
75496;SDS011;64074;47.540;19.072;2024-03-25T11:56:24;0.88;;;0.68;;
75496;SDS011;64074;47.540;19.072;2024-03-25T11:59:34;3.67;;;1.40;;
75496;SDS011;64074;47.540;19.072;2024-03-25T12:02:44;2.92;;;0.88;;
75496;SDS011;64074;47.540;19.072;2024-03-25T12:05:59;1.40;;;0.82;;
75496;SDS011;64074;47.540;19.072;2024-03-25T12:10:34;4.37;;;1.20;;
75496;SDS011;64074;47.540;19.072;2024-03-25T12:13:56;2.78;;;1.20;;
75496;SDS011;64074;47.540;19.072;2024-03-25T12:17:05;3.80;;;1.70;;
75496;SDS011;64074;47.540;19.072;2024-03-25T12:20:15;1.35;;;0.90;;
75496;SDS011;64074;47.540;19.072;2024-03-25T12:23:28;3.80;;;1.20;;
75496;SDS011;64074;47.540;19.072;2024-03-25T12:26:47;2.40;;;1.17;;
75496;SDS011;64074;47.540;19.072;2024-03-25T12:29:59;1.83;;;1.13;;
75496;SDS011;64074;47.540;19.072;2024-03-25T12:33:17;1.98;;;1.33;;
75496;SDS011;64074;47.540;19.072;2024-03-25T12:36:35;2.70;;;1.20;;
75496;SDS011;64074;47.540;19.072;2024-03-25T12:39:58;2.78;;;1.30;;
75496;SDS011;64074;47.540;19.072;2024-03-25T12:43:13;1.50;;;1.20;;
75496;SDS011;64074;47.540;19.072;2024-03-25T12:46:33;2.55;;;0.93;;
75496;SDS011;64074;47.540;19.072;2024-03-25T12:49:44;2.35;;;1.10;;
75496;SDS011;64074;47.540;19.072;2024-03-25T12:52:56;2.15;;;0.80;;
75496;SDS011;64074;47.540;19.072;2024-03-25T12:56:09;4.20;;;0.90;;
75496;SDS011;64074;47.540;19.072;2024-03-25T12:59:18;3.47;;;0.80;;
75496;SDS011;64074;47.540;19.072;2024-03-25T13:02:32;1.98;;;0.70;;
75496;SDS011;64074;47.540;19.072;2024-03-25T13:05:42;1.55;;;1.10;;
75496;SDS011;64074;47.540;19.072;2024-03-25T13:09:07;1.35;;;1.00;;
75496;SDS011;64074;47.540;19.072;2024-03-25T13:12:21;2.67;;;1.08;;
75496;SDS011;64074;47.540;19.072;2024-03-25T13:15:38;5.17;;;1.00;;
75496;SDS011;64074;47.540;19.072;2024-03-25T13:19:06;2.05;;;1.10;;
75496;SDS011;64074;47.540;19.072;2024-03-25T13:22:21;1.75;;;1.20;;
75496;SDS011;64074;47.540;19.072;2024-03-25T13:25:32;2.30;;;1.30;;
75496;SDS011;64074;47.540;19.072;2024-03-25T13:28:39;2.70;;;1.15;;
75496;SDS011;64074;47.540;19.072;2024-03-25T13:31:48;4.07;;;1.50;;
75496;SDS011;64074;47.540;19.072;2024-03-25T13:34:57;4.22;;;1.42;;
75496;SDS011;64074;47.540;19.072;2024-03-25T13:38:11;2.17;;;1.48;;
75496;SDS011;64074;47.540;19.072;2024-03-25T13:41:30;3.13;;;1.08;;
75496;SDS011;64074;47.540;19.072;2024-03-25T13:44:44;3.17;;;0.90;;
75496;SDS011;64074;47.540;19.072;2024-03-25T13:47:48;3.60;;;2.03;;
75496;SDS011;64074;47.540;19.072;2024-03-25T13:51:00;1.85;;;1.10;;
75496;SDS011;64074;47.540;19.072;2024-03-25T13:54:09;1.63;;;1.05;;
75496;SDS011;64074;47.540;19.072;2024-03-25T13:57:19;2.42;;;1.25;;
75496;SDS011;64074;47.540;19.072;2024-03-25T14:00:34;4.45;;;1.42;;
75496;SDS011;64074;47.540;19.072;2024-03-25T14:03:43;2.10;;;1.30;;
75496;SDS011;64074;47.540;19.072;2024-03-25T14:06:48;1.48;;;0.90;;
75496;SDS011;64074;47.540;19.072;2024-03-25T14:10:01;1.02;;;0.70;;
75496;SDS011;64074;47.540;19.072;2024-03-25T14:13:08;1.23;;;0.80;;
75496;SDS011;64074;47.540;19.072;2024-03-25T14:16:18;1.30;;;0.60;;
75496;SDS011;64074;47.540;19.072;2024-03-25T14:19:32;1.70;;;0.60;;
75496;SDS011;64074;47.540;19.072;2024-03-25T14:22:42;5.05;;;0.93;;
75496;SDS011;64074;47.540;19.072;2024-03-25T14:26:18;4.82;;;1.10;;
75496;SDS011;64074;47.540;19.072;2024-03-25T14:29:45;1.17;;;0.90;;
75496;SDS011;64074;47.540;19.072;2024-03-25T14:32:55;1.88;;;1.20;;
75496;SDS011;64074;47.540;19.072;2024-03-25T14:36:13;3.27;;;1.00;;
75496;SDS011;64074;47.540;19.072;2024-03-25T14:39:34;1.48;;;1.10;;
75496;SDS011;64074;47.540;19.072;2024-03-25T14:42:46;3.85;;;2.33;;
75496;SDS011;64074;47.540;19.072;2024-03-25T14:45:57;3.90;;;1.20;;
75496;SDS011;64074;47.540;19.072;2024-03-25T14:49:11;1.50;;;1.20;;
75496;SDS011;64074;47.540;19.072;2024-03-25T14:52:16;1.90;;;1.13;;
75496;SDS011;64074;47.540;19.072;2024-03-25T14:55:25;5.53;;;1.20;;
75496;SDS011;64074;47.540;19.072;2024-03-25T14:58:46;3.83;;;1.55;;
75496;SDS011;64074;47.540;19.072;2024-03-25T15:01:58;2.40;;;1.70;;
75496;SDS011;64074;47.540;19.072;2024-03-25T15:05:07;3.33;;;1.42;;
75496;SDS011;64074;47.540;19.072;2024-03-25T15:08:15;2.03;;;1.87;;
75496;SDS011;64074;47.540;19.072;2024-03-25T15:11:24;2.13;;;1.48;;
75496;SDS011;64074;47.540;19.072;2024-03-25T15:14:39;4.80;;;1.20;;
75496;SDS011;64074;47.540;19.072;2024-03-25T15:17:59;2.10;;;1.10;;
75496;SDS011;64074;47.540;19.072;2024-03-25T15:21:15;2.08;;;0.90;;
75496;SDS011;64074;47.540;19.072;2024-03-25T15:24:35;11.50;;;5.00;;
75496;SDS011;64074;47.540;19.072;2024-03-25T15:27:55;9.02;;;3.10;;
75496;SDS011;64074;47.540;19.072;2024-03-25T15:31:16;1.80;;;1.08;;
75496;SDS011;64074;47.540;19.072;2024-03-25T15:34:39;1.52;;;0.95;;
75496;SDS011;64074;47.540;19.072;2024-03-25T15:37:52;2.47;;;1.02;;
75496;SDS011;64074;47.540;19.072;2024-03-25T15:41:01;2.80;;;1.43;;
75496;SDS011;64074;47.540;19.072;2024-03-25T15:44:14;2.25;;;1.17;;
75496;SDS011;64074;47.540;19.072;2024-03-25T15:47:24;1.60;;;0.98;;
75496;SDS011;64074;47.540;19.072;2024-03-25T15:50:32;3.50;;;1.90;;
75496;SDS011;64074;47.540;19.072;2024-03-25T15:53:36;4.25;;;0.90;;
75496;SDS011;64074;47.540;19.072;2024-03-25T15:56:46;1.90;;;1.20;;
75496;SDS011;64074;47.540;19.072;2024-03-25T15:59:54;5.43;;;1.30;;
75496;SDS011;64074;47.540;19.072;2024-03-25T16:03:14;3.65;;;1.75;;
75496;SDS011;64074;47.540;19.072;2024-03-25T16:06:30;2.95;;;1.25;;
75496;SDS011;64074;47.540;19.072;2024-03-25T16:09:42;2.17;;;1.00;;
75496;SDS011;64074;47.540;19.072;2024-03-25T16:13:04;2.43;;;1.43;;
75496;SDS011;64074;47.540;19.072;2024-03-25T16:16:19;3.28;;;1.80;;
75496;SDS011;64074;47.540;19.072;2024-03-25T16:19:24;1.83;;;1.38;;
75496;SDS011;64074;47.540;19.072;2024-03-25T16:22:36;4.43;;;1.17;;
75496;SDS011;64074;47.540;19.072;2024-03-25T16:25:56;2.47;;;1.20;;
75496;SDS011;64074;47.540;19.072;2024-03-25T16:29:22;1.97;;;1.00;;
75496;SDS011;64074;47.540;19.072;2024-03-25T16:32:38;2.75;;;1.10;;
75496;SDS011;64074;47.540;19.072;2024-03-25T16:35:41;3.10;;;1.35;;
75496;SDS011;64074;47.540;19.072;2024-03-25T16:38:50;2.55;;;0.98;;
75496;SDS011;64074;47.540;19.072;2024-03-25T16:42:08;2.85;;;1.55;;
75496;SDS011;64074;47.540;19.072;2024-03-25T16:45:25;2.10;;;1.07;;
75496;SDS011;64074;47.540;19.072;2024-03-25T16:48:47;3.40;;;1.35;;
75496;SDS011;64074;47.540;19.072;2024-03-25T16:52:12;10.15;;;2.83;;
75496;SDS011;64074;47.540;19.072;2024-03-25T16:55:49;9.60;;;2.58;;
75496;SDS011;64074;47.540;19.072;2024-03-25T16:59:08;10.00;;;4.47;;
75496;SDS011;64074;47.540;19.072;2024-03-25T17:02:11;4.33;;;2.10;;
75496;SDS011;64074;47.540;19.072;2024-03-25T17:05:20;4.13;;;2.10;;
75496;SDS011;64074;47.540;19.072;2024-03-25T17:08:45;3.97;;;2.45;;
75496;SDS011;64074;47.540;19.072;2024-03-25T17:12:07;4.68;;;1.85;;
75496;SDS011;64074;47.540;19.072;2024-03-25T17:15:42;6.07;;;1.33;;
75496;SDS011;64074;47.540;19.072;2024-03-25T17:19:09;7.00;;;2.43;;
75496;SDS011;64074;47.540;19.072;2024-03-25T17:22:23;4.28;;;1.73;;
75496;SDS011;64074;47.540;19.072;2024-03-25T17:25:49;4.45;;;2.13;;
75496;SDS011;64074;47.540;19.072;2024-03-25T17:28:59;3.47;;;1.42;;
75496;SDS011;64074;47.540;19.072;2024-03-25T17:32:28;3.35;;;1.40;;
75496;SDS011;64074;47.540;19.072;2024-03-25T17:35:49;3.40;;;1.30;;
75496;SDS011;64074;47.540;19.072;2024-03-25T17:39:17;8.40;;;3.40;;
75496;SDS011;64074;47.540;19.072;2024-03-25T17:42:27;6.57;;;2.70;;
75496;SDS011;64074;47.540;19.072;2024-03-25T17:45:42;7.57;;;2.22;;
75496;SDS011;64074;47.540;19.072;2024-03-25T17:48:45;4.50;;;2.35;;
75496;SDS011;64074;47.540;19.072;2024-03-25T17:52:00;4.13;;;2.17;;
75496;SDS011;64074;47.540;19.072;2024-03-25T17:55:16;6.43;;;2.38;;
75496;SDS011;64074;47.540;19.072;2024-03-25T17:58:28;8.75;;;2.33;;
75496;SDS011;64074;47.540;19.072;2024-03-25T18:01:47;4.93;;;2.13;;
75496;SDS011;64074;47.540;19.072;2024-03-25T18:05:10;4.20;;;2.05;;
75496;SDS011;64074;47.540;19.072;2024-03-25T18:08:19;5.67;;;2.60;;
75496;SDS011;64074;47.540;19.072;2024-03-25T18:11:28;13.50;;;3.10;;
75496;SDS011;64074;47.540;19.072;2024-03-25T18:14:39;4.43;;;2.55;;
75496;SDS011;64074;47.540;19.072;2024-03-25T18:17:53;4.97;;;2.08;;
75496;SDS011;64074;47.540;19.072;2024-03-25T18:21:21;5.30;;;2.88;;
75496;SDS011;64074;47.540;19.072;2024-03-25T18:24:24;8.93;;;2.90;;
75496;SDS011;64074;47.540;19.072;2024-03-25T18:27:32;6.47;;;2.50;;
75496;SDS011;64074;47.540;19.072;2024-03-25T18:31:03;6.18;;;2.50;;
75496;SDS011;64074;47.540;19.072;2024-03-25T18:34:11;8.35;;;2.60;;
75496;SDS011;64074;47.540;19.072;2024-03-25T18:37:18;5.70;;;2.63;;
75496;SDS011;64074;47.540;19.072;2024-03-25T18:40:21;12.33;;;3.13;;
75496;SDS011;64074;47.540;19.072;2024-03-25T18:43:31;8.07;;;2.60;;
75496;SDS011;64074;47.540;19.072;2024-03-25T18:46:43;6.35;;;1.92;;
75496;SDS011;64074;47.540;19.072;2024-03-25T18:50:04;5.28;;;2.20;;
75496;SDS011;64074;47.540;19.072;2024-03-25T18:53:18;7.35;;;2.33;;
75496;SDS011;64074;47.540;19.072;2024-03-25T18:56:21;10.37;;;2.50;;
75496;SDS011;64074;47.540;19.072;2024-03-25T18:59:29;9.77;;;3.03;;
75496;SDS011;64074;47.540;19.072;2024-03-25T19:02:40;6.68;;;2.65;;
75496;SDS011;64074;47.540;19.072;2024-03-25T19:06:04;7.25;;;2.67;;
75496;SDS011;64074;47.540;19.072;2024-03-25T19:09:25;6.03;;;2.47;;
75496;SDS011;64074;47.540;19.072;2024-03-25T19:12:53;4.83;;;2.70;;
75496;SDS011;64074;47.540;19.072;2024-03-25T19:16:08;5.95;;;2.90;;
75496;SDS011;64074;47.540;19.072;2024-03-25T19:19:20;4.22;;;2.28;;
75496;SDS011;64074;47.540;19.072;2024-03-25T19:22:26;7.45;;;3.28;;
75496;SDS011;64074;47.540;19.072;2024-03-25T19:25:35;10.85;;;5.00;;
75496;SDS011;64074;47.540;19.072;2024-03-25T19:28:49;6.20;;;2.73;;
75496;SDS011;64074;47.540;19.072;2024-03-25T19:32:03;7.65;;;3.40;;